sensor_id;sensor_type;location;lat;lon;timestamp;pressure;altitude;pressure_sealevel;temperature;humidity
67373;BME280;54257;54.496;18.412;2023-02-20T00:01:33;99569.58;;;3.25;91.31
67373;BME280;54257;54.496;18.412;2023-02-20T00:04:00;99560.90;;;3.28;91.08
67373;BME280;54257;54.496;18.412;2023-02-20T00:06:27;99566.52;;;3.29;90.91
67373;BME280;54257;54.496;18.412;2023-02-20T00:08:54;99564.45;;;3.28;90.78
67373;BME280;54257;54.496;18.412;2023-02-20T00:11:21;99562.23;;;3.27;90.68
67373;BME280;54257;54.496;18.412;2023-02-20T00:13:49;99561.17;;;3.26;90.42
67373;BME280;54257;54.496;18.412;2023-02-20T00:16:16;99555.17;;;3.24;90.23
67373;BME280;54257;54.496;18.412;2023-02-20T00:18:43;99549.16;;;3.21;90.18
67373;BME280;54257;54.496;18.412;2023-02-20T00:21:11;99538.75;;;3.18;89.97
67373;BME280;54257;54.496;18.412;2023-02-20T00:23:39;99535.08;;;3.15;90.02
67373;BME280;54257;54.496;18.412;2023-02-20T00:26:11;99539.07;;;3.14;90.08
67373;BME280;54257;54.496;18.412;2023-02-20T00:28:38;99534.65;;;3.12;90.18
67373;BME280;54257;54.496;18.412;2023-02-20T00:31:06;99544.59;;;3.12;90.16
67373;BME280;54257;54.496;18.412;2023-02-20T00:33:34;99544.00;;;3.15;90.00
67373;BME280;54257;54.496;18.412;2023-02-20T00:36:04;99542.55;;;3.17;89.95
67373;BME280;54257;54.496;18.412;2023-02-20T00:38:31;99548.84;;;3.17;89.96
67373;BME280;54257;54.496;18.412;2023-02-20T00:40:59;99555.67;;;3.19;89.82
67373;BME280;54257;54.496;18.412;2023-02-20T00:43:27;99552.74;;;3.22;89.69
67373;BME280;54257;54.496;18.412;2023-02-20T00:45:54;99551.14;;;3.25;89.58
67373;BME280;54257;54.496;18.412;2023-02-20T00:48:21;99543.99;;;3.27;89.38
67373;BME280;54257;54.496;18.412;2023-02-20T00:50:49;99534.57;;;3.28;89.29
67373;BME280;54257;54.496;18.412;2023-02-20T00:53:16;99533.20;;;3.27;89.08
67373;BME280;54257;54.496;18.412;2023-02-20T00:55:43;99531.12;;;3.26;89.06
67373;BME280;54257;54.496;18.412;2023-02-20T00:58:10;99536.80;;;3.25;89.09
67373;BME280;54257;54.496;18.412;2023-02-20T01:00:40;99540.62;;;3.23;89.21
67373;BME280;54257;54.496;18.412;2023-02-20T01:03:07;99543.92;;;3.21;89.33
67373;BME280;54257;54.496;18.412;2023-02-20T01:05:35;99545.73;;;3.20;89.22
67373;BME280;54257;54.496;18.412;2023-02-20T01:08:02;99553.83;;;3.19;89.39
67373;BME280;54257;54.496;18.412;2023-02-20T01:10:29;99551.13;;;3.20;89.29
67373;BME280;54257;54.496;18.412;2023-02-20T01:12:56;99549.78;;;3.20;89.15
67373;BME280;54257;54.496;18.412;2023-02-20T01:15:23;99541.52;;;3.20;88.83
67373;BME280;54257;54.496;18.412;2023-02-20T01:17:50;99532.60;;;3.21;88.56
67373;BME280;54257;54.496;18.412;2023-02-20T01:20:18;99529.10;;;3.22;88.37
67373;BME280;54257;54.496;18.412;2023-02-20T01:22:46;99516.14;;;3.23;88.24
67373;BME280;54257;54.496;18.412;2023-02-20T01:25:13;99516.32;;;3.23;88.04
67373;BME280;54257;54.496;18.412;2023-02-20T01:27:40;99515.69;;;3.25;87.94
67373;BME280;54257;54.496;18.412;2023-02-20T01:30:08;99516.79;;;3.26;87.92
67373;BME280;54257;54.496;18.412;2023-02-20T01:32:35;99525.08;;;3.27;87.77
67373;BME280;54257;54.496;18.412;2023-02-20T01:35:02;99518.34;;;3.27;87.63
67373;BME280;54257;54.496;18.412;2023-02-20T01:37:29;99520.89;;;3.27;87.46
67373;BME280;54257;54.496;18.412;2023-02-20T01:39:56;99519.60;;;3.29;87.42
67373;BME280;54257;54.496;18.412;2023-02-20T01:42:24;99516.94;;;3.30;87.34
67373;BME280;54257;54.496;18.412;2023-02-20T01:45:14;99511.02;;;3.30;87.11
67373;BME280;54257;54.496;18.412;2023-02-20T01:47:41;99499.02;;;3.29;86.93
67373;BME280;54257;54.496;18.412;2023-02-20T01:50:09;99491.02;;;3.27;86.86
67373;BME280;54257;54.496;18.412;2023-02-20T01:52:38;99485.95;;;3.27;86.64
67373;BME280;54257;54.496;18.412;2023-02-20T01:57:53;99480.71;;;3.27;86.57
67373;BME280;54257;54.496;18.412;2023-02-20T02:00:22;99470.42;;;3.27;86.53
67373;BME280;54257;54.496;18.412;2023-02-20T02:03:06;99468.39;;;3.27;86.58
67373;BME280;54257;54.496;18.412;2023-02-20T02:05:36;99471.23;;;3.26;86.66
67373;BME280;54257;54.496;18.412;2023-02-20T02:08:06;99469.08;;;3.23;86.89
67373;BME280;54257;54.496;18.412;2023-02-20T02:10:45;99458.06;;;3.22;86.87
67373;BME280;54257;54.496;18.412;2023-02-20T02:13:15;99453.53;;;3.18;87.15
67373;BME280;54257;54.496;18.412;2023-02-20T02:15:42;99454.42;;;3.15;87.19
67373;BME280;54257;54.496;18.412;2023-02-20T02:32:00;99450.73;;;3.11;87.92
67373;BME280;54257;54.496;18.412;2023-02-20T02:40:53;99435.67;;;3.15;87.98
67373;BME280;54257;54.496;18.412;2023-02-20T02:43:27;99437.04;;;3.15;87.97
67373;BME280;54257;54.496;18.412;2023-02-20T02:46:50;99437.38;;;3.15;87.96
67373;BME280;54257;54.496;18.412;2023-02-20T02:48:55;99439.81;;;3.17;87.98
67373;BME280;54257;54.496;18.412;2023-02-20T02:51:24;99435.12;;;3.17;88.11
67373;BME280;54257;54.496;18.412;2023-02-20T02:54:09;99434.70;;;3.16;88.22
67373;BME280;54257;54.496;18.412;2023-02-20T02:56:40;99430.01;;;3.17;88.15
67373;BME280;54257;54.496;18.412;2023-02-20T02:59:10;99423.27;;;3.17;88.17
67373;BME280;54257;54.496;18.412;2023-02-20T03:01:42;99420.25;;;3.17;88.43
67373;BME280;54257;54.496;18.412;2023-02-20T03:04:11;99419.46;;;3.18;88.38
67373;BME280;54257;54.496;18.412;2023-02-20T03:06:42;99420.84;;;3.19;88.32
67373;BME280;54257;54.496;18.412;2023-02-20T03:09:16;99417.29;;;3.19;88.65
67373;BME280;54257;54.496;18.412;2023-02-20T03:11:45;99409.63;;;3.17;88.44
67373;BME280;54257;54.496;18.412;2023-02-20T03:14:18;99401.60;;;3.15;88.70
67373;BME280;54257;54.496;18.412;2023-02-20T03:17:12;99397.57;;;3.10;88.64
67373;BME280;54257;54.496;18.412;2023-02-20T03:19:51;99395.55;;;3.06;88.79
67373;BME280;54257;54.496;18.412;2023-02-20T03:22:29;99394.20;;;3.01;89.05
67373;BME280;54257;54.496;18.412;2023-02-20T03:25:05;99389.48;;;2.97;89.03
67373;BME280;54257;54.496;18.412;2023-02-20T03:27:47;99382.74;;;2.93;89.14
67373;BME280;54257;54.496;18.412;2023-02-20T03:30:21;99379.27;;;2.90;89.18
67373;BME280;54257;54.496;18.412;2023-02-20T03:32:54;99385.43;;;2.88;89.45
67373;BME280;54257;54.496;18.412;2023-02-20T03:35:44;99382.70;;;2.83;89.84
67373;BME280;54257;54.496;18.412;2023-02-20T03:38:31;99383.45;;;2.80;89.95
67373;BME280;54257;54.496;18.412;2023-02-20T03:41:22;99385.96;;;2.79;90.09
67373;BME280;54257;54.496;18.412;2023-02-20T03:44:10;99383.39;;;2.78;90.49
67373;BME280;54257;54.496;18.412;2023-02-20T03:46:40;99387.77;;;2.78;90.38
67373;BME280;54257;54.496;18.412;2023-02-20T03:49:18;99384.42;;;2.78;90.58
67373;BME280;54257;54.496;18.412;2023-02-20T03:51:47;99382.08;;;2.79;90.81
67373;BME280;54257;54.496;18.412;2023-02-20T03:54:27;99378.55;;;2.80;90.82
67373;BME280;54257;54.496;18.412;2023-02-20T03:56:59;99374.54;;;2.80;90.52
67373;BME280;54257;54.496;18.412;2023-02-20T03:59:32;99364.98;;;2.83;90.52
67373;BME280;54257;54.496;18.412;2023-02-20T04:02:09;99361.30;;;2.83;90.52
67373;BME280;54257;54.496;18.412;2023-02-20T04:04:43;99360.34;;;2.85;90.31
67373;BME280;54257;54.496;18.412;2023-02-20T04:07:18;99354.40;;;2.84;90.33
67373;BME280;54257;54.496;18.412;2023-02-20T04:09:47;99348.74;;;2.80;90.36
67373;BME280;54257;54.496;18.412;2023-02-20T04:12:23;99347.15;;;2.78;89.97
67373;BME280;54257;54.496;18.412;2023-02-20T04:14:53;99342.65;;;2.76;90.13
67373;BME280;54257;54.496;18.412;2023-02-20T04:17:30;99334.81;;;2.73;90.17
67373;BME280;54257;54.496;18.412;2023-02-20T04:20:00;99332.89;;;2.67;90.16
67373;BME280;54257;54.496;18.412;2023-02-20T04:22:30;99321.12;;;2.63;89.99
67373;BME280;54257;54.496;18.412;2023-02-20T04:25:32;99310.38;;;2.60;90.09
67373;BME280;54257;54.496;18.412;2023-02-20T04:28:07;99314.21;;;2.55;90.23
67373;BME280;54257;54.496;18.412;2023-02-20T04:30:34;99308.31;;;2.50;90.51
67373;BME280;54257;54.496;18.412;2023-02-20T04:33:02;99304.83;;;2.47;91.12
67373;BME280;54257;54.496;18.412;2023-02-20T04:35:29;99300.56;;;2.45;90.76
67373;BME280;54257;54.496;18.412;2023-02-20T04:37:57;99291.14;;;2.46;91.12
67373;BME280;54257;54.496;18.412;2023-02-20T04:40:25;99281.20;;;2.46;91.36
67373;BME280;54257;54.496;18.412;2023-02-20T04:42:52;99278.12;;;2.45;91.70
67373;BME280;54257;54.496;18.412;2023-02-20T04:45:19;99280.64;;;2.44;91.86
67373;BME280;54257;54.496;18.412;2023-02-20T04:47:46;99271.62;;;2.43;92.23
67373;BME280;54257;54.496;18.412;2023-02-20T04:50:25;99253.35;;;2.41;92.33
67373;BME280;54257;54.496;18.412;2023-02-20T04:52:53;99247.84;;;2.42;92.32
67373;BME280;54257;54.496;18.412;2023-02-20T04:55:21;99247.27;;;2.40;92.78
67373;BME280;54257;54.496;18.412;2023-02-20T04:57:49;99247.13;;;2.36;93.53
67373;BME280;54257;54.496;18.412;2023-02-20T05:00:18;99237.59;;;2.34;93.87
67373;BME280;54257;54.496;18.412;2023-02-20T05:02:45;99240.71;;;2.32;94.32
67373;BME280;54257;54.496;18.412;2023-02-20T05:05:21;99237.41;;;2.29;94.60
67373;BME280;54257;54.496;18.412;2023-02-20T05:07:58;99233.56;;;2.25;94.87
67373;BME280;54257;54.496;18.412;2023-02-20T05:10:30;99219.23;;;2.20;95.28
67373;BME280;54257;54.496;18.412;2023-02-20T05:12:58;99215.30;;;2.14;95.60
67373;BME280;54257;54.496;18.412;2023-02-20T05:15:28;99209.58;;;2.10;95.62
67373;BME280;54257;54.496;18.412;2023-02-20T05:17:57;99206.92;;;2.06;95.72
67373;BME280;54257;54.496;18.412;2023-02-20T05:20:24;99211.91;;;2.05;95.81
67373;BME280;54257;54.496;18.412;2023-02-20T05:23:11;99208.23;;;2.02;96.13
67373;BME280;54257;54.496;18.412;2023-02-20T05:25:38;99197.70;;;1.99;96.42
67373;BME280;54257;54.496;18.412;2023-02-20T05:28:06;99184.86;;;1.97;96.30
67373;BME280;54257;54.496;18.412;2023-02-20T05:30:33;99175.08;;;1.97;96.46
67373;BME280;54257;54.496;18.412;2023-02-20T05:33:00;99168.25;;;1.95;96.57
67373;BME280;54257;54.496;18.412;2023-02-20T05:35:27;99173.60;;;1.94;96.50
67373;BME280;54257;54.496;18.412;2023-02-20T05:37:59;99174.10;;;1.94;96.45
67373;BME280;54257;54.496;18.412;2023-02-20T05:40:26;99170.67;;;1.92;96.65
67373;BME280;54257;54.496;18.412;2023-02-20T05:43:15;99165.02;;;1.89;96.91
67373;BME280;54257;54.496;18.412;2023-02-20T05:45:43;99156.79;;;1.86;97.12
67373;BME280;54257;54.496;18.412;2023-02-20T05:48:13;99154.40;;;1.85;97.37
67373;BME280;54257;54.496;18.412;2023-02-20T05:50:41;99155.05;;;1.84;97.21
67373;BME280;54257;54.496;18.412;2023-02-20T05:53:09;99153.33;;;1.83;97.53
67373;BME280;54257;54.496;18.412;2023-02-20T05:55:36;99141.30;;;1.81;97.59
67373;BME280;54257;54.496;18.412;2023-02-20T05:58:04;99130.30;;;1.79;97.87
67373;BME280;54257;54.496;18.412;2023-02-20T06:00:32;99116.26;;;1.78;97.95
67373;BME280;54257;54.496;18.412;2023-02-20T06:02:59;99108.94;;;1.76;98.08
67373;BME280;54257;54.496;18.412;2023-02-20T06:05:27;99096.02;;;1.72;98.06
67373;BME280;54257;54.496;18.412;2023-02-20T06:07:54;99085.58;;;1.67;98.22
67373;BME280;54257;54.496;18.412;2023-02-20T06:10:22;99080.70;;;1.63;98.24
67373;BME280;54257;54.496;18.412;2023-02-20T06:12:49;99086.35;;;1.57;98.81
67373;BME280;54257;54.496;18.412;2023-02-20T06:15:17;99077.39;;;1.51;98.93
67373;BME280;54257;54.496;18.412;2023-02-20T06:17:47;99073.33;;;1.50;99.23
67373;BME280;54257;54.496;18.412;2023-02-20T06:20:14;99073.02;;;1.47;99.83
67373;BME280;54257;54.496;18.412;2023-02-20T06:22:42;99065.71;;;1.45;99.71
67373;BME280;54257;54.496;18.412;2023-02-20T06:25:09;99054.77;;;1.45;99.78
67373;BME280;54257;54.496;18.412;2023-02-20T06:27:39;99052.55;;;1.44;99.97
67373;BME280;54257;54.496;18.412;2023-02-20T06:30:06;99048.16;;;1.44;99.74
67373;BME280;54257;54.496;18.412;2023-02-20T06:32:33;99036.55;;;1.43;99.93
67373;BME280;54257;54.496;18.412;2023-02-20T06:35:00;99019.67;;;1.41;99.99
67373;BME280;54257;54.496;18.412;2023-02-20T06:37:27;99015.39;;;1.39;100.00
67373;BME280;54257;54.496;18.412;2023-02-20T06:39:55;99013.64;;;1.38;99.97
67373;BME280;54257;54.496;18.412;2023-02-20T06:42:21;99020.34;;;1.37;99.97
67373;BME280;54257;54.496;18.412;2023-02-20T06:44:49;99017.95;;;1.36;100.00
67373;BME280;54257;54.496;18.412;2023-02-20T06:47:16;98999.86;;;1.33;100.00
67373;BME280;54257;54.496;18.412;2023-02-20T06:49:43;98994.42;;;1.32;100.00
67373;BME280;54257;54.496;18.412;2023-02-20T06:52:15;98994.48;;;1.30;100.00
67373;BME280;54257;54.496;18.412;2023-02-20T06:54:42;98993.06;;;1.27;100.00
67373;BME280;54257;54.496;18.412;2023-02-20T06:57:09;98988.59;;;1.25;100.00
67373;BME280;54257;54.496;18.412;2023-02-20T06:59:36;98987.53;;;1.23;100.00
67373;BME280;54257;54.496;18.412;2023-02-20T07:02:11;98976.51;;;1.21;100.00
67373;BME280;54257;54.496;18.412;2023-02-20T07:04:39;98968.90;;;1.20;100.00
67373;BME280;54257;54.496;18.412;2023-02-20T07:07:06;98960.42;;;1.18;100.00
67373;BME280;54257;54.496;18.412;2023-02-20T07:09:33;98954.11;;;1.16;100.00
67373;BME280;54257;54.496;18.412;2023-02-20T07:12:00;98947.63;;;1.13;100.00
67373;BME280;54257;54.496;18.412;2023-02-20T07:14:27;98928.71;;;1.11;100.00
67373;BME280;54257;54.496;18.412;2023-02-20T07:16:54;98917.73;;;1.09;100.00
67373;BME280;54257;54.496;18.412;2023-02-20T07:19:21;98910.98;;;1.08;100.00
67373;BME280;54257;54.496;18.412;2023-02-20T07:21:49;98904.55;;;1.07;100.00
67373;BME280;54257;54.496;18.412;2023-02-20T07:24:18;98889.73;;;1.06;100.00
67373;BME280;54257;54.496;18.412;2023-02-20T07:26:46;98882.26;;;1.05;100.00
67373;BME280;54257;54.496;18.412;2023-02-20T07:29:14;98871.23;;;1.02;100.00
67373;BME280;54257;54.496;18.412;2023-02-20T07:31:41;98859.34;;;0.99;100.00
67373;BME280;54257;54.496;18.412;2023-02-20T07:34:08;98846.61;;;0.96;100.00
67373;BME280;54257;54.496;18.412;2023-02-20T07:36:36;98844.61;;;0.91;100.00
67373;BME280;54257;54.496;18.412;2023-02-20T07:39:04;98844.28;;;0.87;100.00
67373;BME280;54257;54.496;18.412;2023-02-20T07:41:32;98838.00;;;0.85;100.00
67373;BME280;54257;54.496;18.412;2023-02-20T07:44:01;98825.86;;;0.83;100.00
67373;BME280;54257;54.496;18.412;2023-02-20T07:46:28;98830.08;;;0.84;100.00
67373;BME280;54257;54.496;18.412;2023-02-20T07:49:02;98825.08;;;0.86;100.00
67373;BME280;54257;54.496;18.412;2023-02-20T07:51:31;98825.48;;;0.88;100.00
67373;BME280;54257;54.496;18.412;2023-02-20T07:53:58;98810.95;;;0.90;100.00
67373;BME280;54257;54.496;18.412;2023-02-20T07:56:25;98787.80;;;0.91;100.00
67373;BME280;54257;54.496;18.412;2023-02-20T07:58:54;98773.38;;;0.92;100.00
67373;BME280;54257;54.496;18.412;2023-02-20T08:01:21;98755.95;;;0.94;100.00
67373;BME280;54257;54.496;18.412;2023-02-20T08:03:48;98747.58;;;0.95;100.00
67373;BME280;54257;54.496;18.412;2023-02-20T08:06:17;98738.65;;;0.94;100.00
67373;BME280;54257;54.496;18.412;2023-02-20T08:08:49;98734.45;;;0.94;100.00
67373;BME280;54257;54.496;18.412;2023-02-20T08:11:27;98730.42;;;0.94;100.00
67373;BME280;54257;54.496;18.412;2023-02-20T08:14:06;98719.48;;;0.94;100.00
67373;BME280;54257;54.496;18.412;2023-02-20T08:16:35;98716.45;;;0.94;100.00
67373;BME280;54257;54.496;18.412;2023-02-20T08:19:02;98709.69;;;0.92;100.00
67373;BME280;54257;54.496;18.412;2023-02-20T08:21:32;98692.99;;;0.91;100.00
67373;BME280;54257;54.496;18.412;2023-02-20T08:24:09;98683.39;;;0.90;100.00
67373;BME280;54257;54.496;18.412;2023-02-20T08:26:47;98670.25;;;0.94;100.00
67373;BME280;54257;54.496;18.412;2023-02-20T08:29:15;98632.21;;;0.97;100.00
67373;BME280;54257;54.496;18.412;2023-02-20T08:31:43;98637.39;;;1.02;100.00
67373;BME280;54257;54.496;18.412;2023-02-20T08:34:10;98648.52;;;1.08;100.00
67373;BME280;54257;54.496;18.412;2023-02-20T08:36:39;98628.54;;;1.14;100.00
67373;BME280;54257;54.496;18.412;2023-02-20T08:39:06;98600.38;;;1.22;100.00
67373;BME280;54257;54.496;18.412;2023-02-20T08:41:33;98569.87;;;1.31;100.00
67373;BME280;54257;54.496;18.412;2023-02-20T08:44:00;98559.20;;;1.39;100.00
67373;BME280;54257;54.496;18.412;2023-02-20T08:46:28;98544.59;;;1.46;100.00
67373;BME280;54257;54.496;18.412;2023-02-20T08:48:55;98533.53;;;1.53;100.00
67373;BME280;54257;54.496;18.412;2023-02-20T08:51:22;98513.02;;;1.60;100.00
67373;BME280;54257;54.496;18.412;2023-02-20T08:53:50;98487.78;;;1.65;100.00
67373;BME280;54257;54.496;18.412;2023-02-20T08:56:19;98471.66;;;1.73;100.00
67373;BME280;54257;54.496;18.412;2023-02-20T08:58:46;98481.13;;;1.81;100.00
67373;BME280;54257;54.496;18.412;2023-02-20T09:01:13;98481.61;;;1.86;100.00
67373;BME280;54257;54.496;18.412;2023-02-20T09:03:40;98488.79;;;1.90;100.00
67373;BME280;54257;54.496;18.412;2023-02-20T09:06:18;98485.04;;;1.94;100.00
67373;BME280;54257;54.496;18.412;2023-02-20T09:08:47;98475.41;;;2.00;100.00
67373;BME280;54257;54.496;18.412;2023-02-20T09:11:19;98450.41;;;2.04;100.00
67373;BME280;54257;54.496;18.412;2023-02-20T09:13:48;98448.70;;;2.09;100.00
67373;BME280;54257;54.496;18.412;2023-02-20T09:16:20;98434.20;;;2.14;100.00
67373;BME280;54257;54.496;18.412;2023-02-20T09:18:48;98433.45;;;2.19;100.00
67373;BME280;54257;54.496;18.412;2023-02-20T09:21:18;98421.12;;;2.24;100.00
67373;BME280;54257;54.496;18.412;2023-02-20T09:23:45;98423.30;;;2.31;100.00
67373;BME280;54257;54.496;18.412;2023-02-20T09:26:12;98426.14;;;2.37;100.00
67373;BME280;54257;54.496;18.412;2023-02-20T09:28:41;98403.80;;;2.40;100.00
67373;BME280;54257;54.496;18.412;2023-02-20T09:31:10;98403.49;;;2.48;100.00
67373;BME280;54257;54.496;18.412;2023-02-20T09:33:44;98407.09;;;2.51;100.00
67373;BME280;54257;54.496;18.412;2023-02-20T09:36:12;98402.75;;;2.52;100.00
67373;BME280;54257;54.496;18.412;2023-02-20T09:38:39;98395.77;;;2.57;100.00
67373;BME280;54257;54.496;18.412;2023-02-20T09:41:22;98390.45;;;2.60;100.00
67373;BME280;54257;54.496;18.412;2023-02-20T09:44:21;98385.46;;;2.63;100.00
67373;BME280;54257;54.496;18.412;2023-02-20T09:46:51;98386.20;;;2.66;100.00
67373;BME280;54257;54.496;18.412;2023-02-20T09:49:32;98367.23;;;2.69;100.00
67373;BME280;54257;54.496;18.412;2023-02-20T09:52:11;98356.17;;;2.73;100.00
67373;BME280;54257;54.496;18.412;2023-02-20T09:54:45;98354.62;;;2.78;100.00
67373;BME280;54257;54.496;18.412;2023-02-20T09:57:17;98336.67;;;2.83;100.00
67373;BME280;54257;54.496;18.412;2023-02-20T09:59:52;98330.23;;;2.90;100.00
67373;BME280;54257;54.496;18.412;2023-02-20T10:02:34;98329.70;;;2.96;100.00
67373;BME280;54257;54.496;18.412;2023-02-20T10:05:18;98335.41;;;3.03;100.00
67373;BME280;54257;54.496;18.412;2023-02-20T10:07:48;98331.98;;;3.09;100.00
67373;BME280;54257;54.496;18.412;2023-02-20T10:10:36;98331.54;;;3.13;100.00
67373;BME280;54257;54.496;18.412;2023-02-20T10:21:44;98280.71;;;3.38;100.00
67373;BME280;54257;54.496;18.412;2023-02-20T10:24:22;98266.34;;;3.46;100.00
67373;BME280;54257;54.496;18.412;2023-02-20T10:26:56;98252.65;;;3.54;100.00
67373;BME280;54257;54.496;18.412;2023-02-20T10:29:28;98238.77;;;3.61;100.00
67373;BME280;54257;54.496;18.412;2023-02-20T10:32:20;98233.83;;;3.70;100.00
67373;BME280;54257;54.496;18.412;2023-02-20T10:34:54;98226.70;;;3.79;100.00
67373;BME280;54257;54.496;18.412;2023-02-20T10:37:28;98207.73;;;3.87;100.00
67373;BME280;54257;54.496;18.412;2023-02-20T10:42:51;98191.41;;;4.03;100.00
67373;BME280;54257;54.496;18.412;2023-02-20T10:45:35;98188.83;;;4.12;100.00
67373;BME280;54257;54.496;18.412;2023-02-20T10:48:10;98188.79;;;4.21;100.00
67373;BME280;54257;54.496;18.412;2023-02-20T10:55:48;98180.83;;;4.48;100.00
67373;BME280;54257;54.496;18.412;2023-02-20T11:00:49;98168.31;;;4.62;100.00
67373;BME280;54257;54.496;18.412;2023-02-20T11:03:45;98169.23;;;4.69;100.00
67373;BME280;54257;54.496;18.412;2023-02-20T11:06:13;98155.95;;;4.75;100.00
67373;BME280;54257;54.496;18.412;2023-02-20T11:08:41;98155.15;;;4.81;100.00
67373;BME280;54257;54.496;18.412;2023-02-20T11:11:30;98151.83;;;4.87;100.00
67373;BME280;54257;54.496;18.412;2023-02-20T11:13:59;98142.40;;;4.92;100.00
67373;BME280;54257;54.496;18.412;2023-02-20T11:16:36;98147.53;;;4.97;100.00
67373;BME280;54257;54.496;18.412;2023-02-20T11:19:20;98145.36;;;5.03;100.00
67373;BME280;54257;54.496;18.412;2023-02-20T11:21:49;98143.90;;;5.07;100.00
67373;BME280;54257;54.496;18.412;2023-02-20T11:24:32;98142.05;;;5.11;100.00
67373;BME280;54257;54.496;18.412;2023-02-20T11:27:21;98143.63;;;5.15;100.00
67373;BME280;54257;54.496;18.412;2023-02-20T11:33:05;98138.44;;;5.22;100.00
67373;BME280;54257;54.496;18.412;2023-02-20T11:35:46;98126.61;;;5.25;100.00
67373;BME280;54257;54.496;18.412;2023-02-20T11:38:26;98126.80;;;5.28;100.00
67373;BME280;54257;54.496;18.412;2023-02-20T11:40:59;98116.51;;;5.31;100.00
67373;BME280;54257;54.496;18.412;2023-02-20T11:43:40;98116.52;;;5.33;100.00
67373;BME280;54257;54.496;18.412;2023-02-20T11:46:21;98119.23;;;5.35;100.00
67373;BME280;54257;54.496;18.412;2023-02-20T11:49:08;98102.66;;;5.37;100.00
67373;BME280;54257;54.496;18.412;2023-02-20T11:51:45;98092.35;;;5.39;100.00
67373;BME280;54257;54.496;18.412;2023-02-20T11:54:18;98103.52;;;5.41;100.00
67373;BME280;54257;54.496;18.412;2023-02-20T11:57:11;98090.19;;;5.45;100.00
67373;BME280;54257;54.496;18.412;2023-02-20T11:59:50;98081.91;;;5.49;100.00
67373;BME280;54257;54.496;18.412;2023-02-20T12:02:23;98072.95;;;5.51;100.00
67373;BME280;54257;54.496;18.412;2023-02-20T12:05:12;98082.81;;;5.55;100.00
67373;BME280;54257;54.496;18.412;2023-02-20T12:07:57;98071.98;;;5.58;100.00
67373;BME280;54257;54.496;18.412;2023-02-20T12:12:52;98073.72;;;5.65;100.00
67373;BME280;54257;54.496;18.412;2023-02-20T12:15:22;98068.13;;;5.68;100.00
67373;BME280;54257;54.496;18.412;2023-02-20T12:20:38;98050.55;;;5.72;100.00
67373;BME280;54257;54.496;18.412;2023-02-20T12:23:19;98043.60;;;5.75;100.00
67373;BME280;54257;54.496;18.412;2023-02-20T12:37:31;98018.09;;;5.87;100.00
67373;BME280;54257;54.496;18.412;2023-02-20T12:42:52;98026.09;;;5.92;100.00
67373;BME280;54257;54.496;18.412;2023-02-20T12:59:30;98013.77;;;6.03;100.00
67373;BME280;54257;54.496;18.412;2023-02-20T13:02:05;98015.80;;;6.05;100.00
67373;BME280;54257;54.496;18.412;2023-02-20T13:04:44;98020.05;;;6.05;100.00
67373;BME280;54257;54.496;18.412;2023-02-20T13:12:34;98006.31;;;6.09;100.00
67373;BME280;54257;54.496;18.412;2023-02-20T13:20:49;97962.44;;;6.12;100.00
67373;BME280;54257;54.496;18.412;2023-02-20T13:25:50;97960.56;;;6.15;100.00
67373;BME280;54257;54.496;18.412;2023-02-20T13:28:24;97967.68;;;6.17;100.00
67373;BME280;54257;54.496;18.412;2023-02-20T13:31:17;97975.14;;;6.18;100.00
67373;BME280;54257;54.496;18.412;2023-02-20T13:36:41;97993.80;;;6.19;100.00
67373;BME280;54257;54.496;18.412;2023-02-20T13:42:29;98003.30;;;6.21;100.00
67373;BME280;54257;54.496;18.412;2023-02-20T13:44:57;98004.66;;;6.21;100.00
67373;BME280;54257;54.496;18.412;2023-02-20T13:49:56;97993.63;;;6.23;100.00
67373;BME280;54257;54.496;18.412;2023-02-20T13:52:37;97981.42;;;6.25;100.00
67373;BME280;54257;54.496;18.412;2023-02-20T13:58:12;97973.98;;;6.26;100.00
67373;BME280;54257;54.496;18.412;2023-02-20T14:00:54;97984.83;;;6.30;100.00
67373;BME280;54257;54.496;18.412;2023-02-20T14:08:42;97987.55;;;6.33;100.00
67373;BME280;54257;54.496;18.412;2023-02-20T14:11:27;97992.46;;;6.34;100.00
67373;BME280;54257;54.496;18.412;2023-02-20T14:13:57;97977.20;;;6.33;100.00
67373;BME280;54257;54.496;18.412;2023-02-20T14:16:32;97966.17;;;6.33;100.00
67373;BME280;54257;54.496;18.412;2023-02-20T14:19:08;97965.33;;;6.34;100.00
67373;BME280;54257;54.496;18.412;2023-02-20T14:21:41;97960.27;;;6.36;100.00
67373;BME280;54257;54.496;18.412;2023-02-20T14:26:47;97956.02;;;6.37;100.00
67373;BME280;54257;54.496;18.412;2023-02-20T14:29:29;97962.45;;;6.39;100.00
67373;BME280;54257;54.496;18.412;2023-02-20T14:31:59;97958.22;;;6.39;100.00
67373;BME280;54257;54.496;18.412;2023-02-20T14:37:15;97949.58;;;6.40;100.00
67373;BME280;54257;54.496;18.412;2023-02-20T14:40:09;97937.02;;;6.42;100.00
67373;BME280;54257;54.496;18.412;2023-02-20T14:42:43;97944.49;;;6.43;100.00
67373;BME280;54257;54.496;18.412;2023-02-20T14:45:18;97938.06;;;6.44;100.00
67373;BME280;54257;54.496;18.412;2023-02-20T14:47:56;97930.09;;;6.45;100.00
67373;BME280;54257;54.496;18.412;2023-02-20T14:50:36;97932.80;;;6.45;100.00
67373;BME280;54257;54.496;18.412;2023-02-20T14:53:16;97930.08;;;6.47;100.00
67373;BME280;54257;54.496;18.412;2023-02-20T14:55:49;97933.63;;;6.49;100.00
67373;BME280;54257;54.496;18.412;2023-02-20T14:58:19;97925.15;;;6.49;100.00
67373;BME280;54257;54.496;18.412;2023-02-20T15:00:49;97924.31;;;6.51;100.00
67373;BME280;54257;54.496;18.412;2023-02-20T15:03:23;97925.34;;;6.53;100.00
67373;BME280;54257;54.496;18.412;2023-02-20T15:05:52;97926.52;;;6.54;100.00
67373;BME280;54257;54.496;18.412;2023-02-20T15:08:22;97927.36;;;6.55;100.00
67373;BME280;54257;54.496;18.412;2023-02-20T15:10:57;97913.61;;;6.57;100.00
67373;BME280;54257;54.496;18.412;2023-02-20T15:13:38;97923.79;;;6.58;100.00
67373;BME280;54257;54.496;18.412;2023-02-20T15:16:27;97923.61;;;6.59;100.00